Time;durP1;ratioP1;P1;durP2;ratioP2;P2;SDS_P1;SDS_P2;PMS_P1;PMS_P2;Temp;Humidity;BMP_temperature;BMP_pressure;BME280_temperature;BME280_humidity;BME280_pressure;Samples;Min_cycle;Max_cycle;Signal;HPM_P1;HPM_P2
2021/04/07 04:46:07;;;;;;;5.97;3.22;;;;;;;;;;6073804;23;884313;-80
2021/04/07 04:48:33;;;;;;;8.65;2.97;;;;;;;;;;6100765;23;20349;-80
2021/04/07 04:50:59;;;;;;;5.80;2.50;;;;;;;;;;6101703;23;20026;-80
2021/04/07 04:53:24;;;;;;;9.90;2.00;;;;;;;;;;6076173;23;20035;-80
2021/04/07 04:55:50;;;;;;;6.30;2.30;;;;;;;;;;6094970;23;20029;-80
2021/04/07 04:58:16;;;;;;;5.47;2.42;;;;;;;;;;6075271;23;20005;-80
2021/04/07 05:03:00;;;;;;;6.22;2.60;;;;;;;;;;5160566;27;20427;-75
2021/04/07 05:05:25;;;;;;;4.40;2.42;;;;;;;;;;5165727;27;20041;-75
2021/04/07 05:07:51;;;;;;;5.63;2.63;;;;;;;;;;5151223;27;20029;-75
2021/04/07 05:10:17;;;;;;;8.00;2.10;;;;;;;;;;5158218;27;20455;-75
2021/04/07 05:12:42;;;;;;;5.18;2.75;;;;;;;;;;5167284;27;20027;-76
2021/04/07 05:15:08;;;;;;;4.50;2.10;;;;;;;;;;5149863;27;20098;-76
2021/04/07 05:17:37;;;;;;;5.70;3.35;;;;;;;;;;5165031;27;20015;-75
2021/04/07 05:22:21;;;;;;;5.05;2.80;;;;;;;;;;5076252;28;20346;-75
2021/04/07 05:24:47;;;;;;;7.57;2.78;;;;;;;;;;5084954;28;20035;-76
2021/04/07 05:27:13;;;;;;;6.40;3.42;;;;;;;;;;5090892;28;20028;-76
2021/04/07 05:29:38;;;;;;;4.30;2.10;;;;;;;;;;5083475;28;20023;-76
2021/04/07 05:32:04;;;;;;;3.95;2.00;;;;;;;;;;5074519;28;20036;-76
2021/04/07 05:34:32;;;;;;;3.90;1.73;;;;;;;;;;5081845;28;20021;-76
2021/04/07 05:36:57;;;;;;;5.70;2.17;;;;;;;;;;5067390;28;20121;-76
2021/04/07 05:39:23;;;;;;;7.97;2.25;;;;;;;;;;5078544;28;20027;-76
2021/04/07 05:41:49;;;;;;;4.03;2.05;;;;;;;;;;5082853;28;20099;-76
2021/04/07 05:44:14;;;;;;;5.50;1.92;;;;;;;;;;5068448;28;20025;-76
2021/04/07 05:46:40;;;;;;;4.28;1.88;;;;;;;;;;5068741;28;20016;-76
2021/04/07 05:49:06;;;;;;;4.47;2.03;;;;;;;;;;5057832;28;20025;-76
2021/04/07 05:51:31;;;;;;;4.72;2.40;;;;;;;;;;5064163;28;20033;-76
2021/04/07 05:53:57;;;;;;;7.38;2.45;;;;;;;;;;5068247;28;20017;-75
2021/04/07 05:56:23;;;;;;;5.82;2.60;;;;;;;;;;5072384;28;20111;-75
2021/04/07 05:58:48;;;;;;;7.93;3.00;;;;;;;;;;5078157;28;20028;-76
2021/04/07 06:01:14;;;;;;;10.13;3.25;;;;;;;;;;5064273;28;20021;-76
2021/04/07 06:03:40;;;;;;;9.90;2.58;;;;;;;;;;5064340;28;20016;-76
2021/04/07 06:06:07;;;;;;;5.72;2.80;;;;;;;;;;5061834;28;20539;-76
2021/04/07 06:08:33;;;;;;;4.15;2.50;;;;;;;;;;5068043;28;20020;-76
2021/04/07 06:10:59;;;;;;;5.15;2.38;;;;;;;;;;5059146;28;20123;-75
2021/04/07 06:13:24;;;;;;;7.70;2.75;;;;;;;;;;5073716;28;20090;-76
2021/04/07 06:15:50;;;;;;;5.13;1.95;;;;;;;;;;5076297;28;20020;-76
2021/04/07 06:18:16;;;;;;;6.05;2.30;;;;;;;;;;5077755;28;20029;-76
2021/04/07 06:20:43;;;;;;;8.45;2.25;;;;;;;;;;5076006;28;20027;-75
2021/04/07 06:23:09;;;;;;;5.22;2.25;;;;;;;;;;5064446;28;20423;-76
2021/04/07 06:25:36;;;;;;;3.72;1.92;;;;;;;;;;5078492;28;20028;-76
2021/04/07 06:28:04;;;;;;;4.70;2.30;;;;;;;;;;5070500;28;20030;-76
2021/04/07 06:33:11;;;;;;;5.32;2.25;;;;;;;;;;5064728;28;20024;-76
2021/04/07 06:35:36;;;;;;;8.23;3.33;;;;;;;;;;5059870;28;20044;-76
2021/04/07 06:38:02;;;;;;;10.25;3.38;;;;;;;;;;5055436;28;20116;-76
2021/04/07 06:40:29;;;;;;;12.05;6.07;;;;;;;;;;5053263;28;20104;-76
2021/04/07 06:45:13;;;;;;;16.13;5.13;;;;;;;;;;5089418;28;20404;-75
2021/04/07 06:47:40;;;;;;;8.43;3.53;;;;;;;;;;5080758;28;20064;-75
2021/04/07 06:50:06;;;;;;;12.27;5.88;;;;;;;;;;5070807;28;20075;-75
2021/04/07 06:52:31;;;;;;;12.35;5.95;;;;;;;;;;5056009;28;20025;-75
2021/04/07 06:54:57;;;;;;;7.72;2.80;;;;;;;;;;5054086;28;20099;-75
2021/04/07 06:57:23;;;;;;;7.90;2.85;;;;;;;;;;5054325;28;20506;-75
2021/04/07 06:59:49;;;;;;;9.00;3.15;;;;;;;;;;5080845;28;20099;-75
2021/04/07 07:02:15;;;;;;;7.40;2.85;;;;;;;;;;5070798;28;19923;-76
2021/04/07 07:04:41;;;;;;;6.43;2.38;;;;;;;;;;5073136;28;20452;-75
2021/04/07 07:07:07;;;;;;;17.60;5.55;;;;;;;;;;5053226;28;20059;-76
2021/04/07 07:09:33;;;;;;;10.30;4.35;;;;;;;;;;5081151;28;20017;-76
2021/04/07 07:11:59;;;;;;;5.55;3.30;;;;;;;;;;5054299;28;20124;-76
2021/04/07 07:14:25;;;;;;;7.22;3.97;;;;;;;;;;5062689;28;20020;-76
2021/04/07 07:16:52;;;;;;;10.77;5.53;;;;;;;;;;5077353;28;20013;-76
2021/04/07 07:19:27;;;;;;;14.70;7.43;;;;;;;;;;5076704;28;20037;-76
2021/04/07 07:21:54;;;;;;;17.75;9.18;;;;;;;;;;5082420;28;20028;-76
2021/04/07 07:24:33;;;;;;;9.98;5.32;;;;;;;;;;5071003;28;20075;-76
2021/04/07 07:29:23;;;;;;;8.73;4.13;;;;;;;;;;5121059;27;20445;-75
2021/04/07 07:31:56;;;;;;;20.00;9.73;;;;;;;;;;5105805;27;20036;-75
2021/04/07 07:34:26;;;;;;;18.90;9.30;;;;;;;;;;5104853;28;20440;-75
2021/04/07 07:36:52;;;;;;;16.83;8.35;;;;;;;;;;5101534;28;20031;-75
2021/04/07 07:39:23;;;;;;;16.70;6.40;;;;;;;;;;5100136;28;20047;-75
2021/04/07 07:41:49;;;;;;;14.32;7.68;;;;;;;;;;5104762;27;20090;-75
2021/04/07 07:44:15;;;;;;;11.63;5.80;;;;;;;;;;5100723;28;20024;-75
2021/04/07 07:46:41;;;;;;;11.60;6.85;;;;;;;;;;5108271;28;20099;-75
2021/04/07 07:49:15;;;;;;;13.00;6.45;;;;;;;;;;5110645;28;20394;-75
2021/04/07 07:51:45;;;;;;;8.20;4.78;;;;;;;;;;5103968;28;20027;-76
2021/04/07 07:54:15;;;;;;;10.60;4.80;;;;;;;;;;5105178;28;20024;-76
2021/04/07 07:56:40;;;;;;;9.05;4.95;;;;;;;;;;5109762;28;20023;-76
2021/04/07 07:59:06;;;;;;;7.18;4.28;;;;;;;;;;5100257;28;20042;-76
2021/04/07 08:01:42;;;;;;;7.82;3.95;;;;;;;;;;5111817;28;20055;-76
2021/04/07 08:04:08;;;;;;;9.48;5.40;;;;;;;;;;5105172;28;20026;-76
2021/04/07 08:06:33;;;;;;;13.73;3.55;;;;;;;;;;5105998;28;20477;-76
2021/04/07 08:08:59;;;;;;;9.63;3.25;;;;;;;;;;5103132;28;20020;-77
2021/04/07 08:11:25;;;;;;;8.45;4.43;;;;;;;;;;5107616;28;20038;-76
2021/04/07 08:16:10;;;;;;;12.57;4.85;;;;;;;;;;5105726;27;20355;-75
2021/04/07 08:18:39;;;;;;;11.80;4.68;;;;;;;;;;5077694;28;20119;-75
2021/04/07 08:21:06;;;;;;;11.68;6.60;;;;;;;;;;5076173;28;20024;-75
2021/04/07 08:23:33;;;;;;;10.60;5.22;;;;;;;;;;5077779;28;20071;-75
2021/04/07 08:25:59;;;;;;;10.88;3.55;;;;;;;;;;5072468;28;20028;-75
2021/04/07 08:28:26;;;;;;;8.10;3.97;;;;;;;;;;5079415;28;20109;-75
2021/04/07 08:30:52;;;;;;;9.88;3.17;;;;;;;;;;5085135;28;20032;-76
2021/04/07 08:33:18;;;;;;;10.10;3.53;;;;;;;;;;5079085;28;20048;-75
2021/04/07 08:35:45;;;;;;;10.65;3.42;;;;;;;;;;5079831;28;20024;-75
2021/04/07 08:38:10;;;;;;;9.88;3.85;;;;;;;;;;5077087;28;20020;-76
2021/04/07 08:40:37;;;;;;;8.15;3.17;;;;;;;;;;5081402;28;20124;-75
2021/04/07 08:43:03;;;;;;;11.15;3.10;;;;;;;;;;5079892;28;20096;-76
2021/04/07 08:45:36;;;;;;;9.18;3.20;;;;;;;;;;5078066;28;20029;-75
2021/04/07 08:48:07;;;;;;;8.80;3.60;;;;;;;;;;5076252;28;20033;-75
2021/04/07 08:50:32;;;;;;;6.00;3.40;;;;;;;;;;5079823;28;20450;-75
2021/04/07 08:52:58;;;;;;;10.75;4.03;;;;;;;;;;5080040;28;20060;-75
2021/04/07 08:55:27;;;;;;;8.43;4.18;;;;;;;;;;5090461;28;20100;-75
2021/04/07 08:58:03;;;;;;;12.18;3.30;;;;;;;;;;5083205;28;20024;-76
2021/04/07 09:00:30;;;;;;;8.50;3.40;;;;;;;;;;5082499;28;20077;-76
2021/04/07 09:02:56;;;;;;;9.98;6.28;;;;;;;;;;5081767;28;20388;-75
2021/04/07 09:05:29;;;;;;;7.13;3.88;;;;;;;;;;5082860;28;20426;-76
2021/04/07 09:07:55;;;;;;;8.52;3.97;;;;;;;;;;5080224;28;20016;-76
2021/04/07 09:10:22;;;;;;;6.68;3.20;;;;;;;;;;5083996;28;20051;-75
2021/04/07 09:12:49;;;;;;;10.73;3.30;;;;;;;;;;5084439;28;20017;-78
2021/04/07 09:15:15;;;;;;;17.40;11.45;;;;;;;;;;5076517;28;20075;-74
2021/04/07 09:18:07;;;;;;;40.38;17.80;;;;;;;;;;5065320;28;20028;-74
2021/04/07 09:20:32;;;;;;;;;;;;;;;;;;5073959;28;20036;-74
2021/04/07 09:23:06;;;;;;;42.95;17.10;;;;;;;;;;5081318;28;19923;-74
2021/04/07 09:25:32;;;;;;;40.17;15.48;;;;;;;;;;5075014;28;20021;-74
2021/04/07 09:28:07;;;;;;;23.08;12.50;;;;;;;;;;5064763;28;20012;-74
2021/04/07 09:30:45;;;;;;;17.10;7.28;;;;;;;;;;5063206;28;20444;-75
2021/04/07 09:33:11;;;;;;;10.77;5.90;;;;;;;;;;5065510;28;20032;-74
2021/04/07 09:35:38;;;;;;;12.27;5.25;;;;;;;;;;5064268;28;20044;-74
2021/04/07 09:38:04;;;;;;;9.07;4.47;;;;;;;;;;5065483;28;20107;-74
2021/04/07 09:40:29;;;;;;;9.00;4.03;;;;;;;;;;5061711;28;20495;-75
2021/04/07 09:42:55;;;;;;;7.70;2.70;;;;;;;;;;5065523;28;20021;-74
2021/04/07 09:45:25;;;;;;;6.13;2.35;;;;;;;;;;5063536;28;20119;-74
2021/04/07 09:47:54;;;;;;;9.38;3.38;;;;;;;;;;5065721;28;20026;-74
2021/04/07 09:50:20;;;;;;;5.60;2.72;;;;;;;;;;5062715;28;20123;-74
2021/04/07 09:52:47;;;;;;;13.50;3.78;;;;;;;;;;5065622;28;20025;-74
2021/04/07 09:55:20;;;;;;;8.43;3.00;;;;;;;;;;5056223;28;20048;-74
2021/04/07 09:57:55;;;;;;;8.60;3.67;;;;;;;;;;5058316;28;20066;-75
2021/04/07 10:00:27;;;;;;;13.07;3.60;;;;;;;;;;5051610;28;20033;-75
2021/04/07 10:02:52;;;;;;;11.32;4.00;;;;;;;;;;5061600;28;20017;-75
2021/04/07 10:05:25;;;;;;;6.72;3.35;;;;;;;;;;5068710;28;20035;-75
2021/04/07 10:07:51;;;;;;;7.88;3.63;;;;;;;;;;5064386;28;20086;-74
2021/04/07 10:10:17;;;;;;;9.23;3.70;;;;;;;;;;5062106;28;20107;-74
2021/04/07 10:12:42;;;;;;;11.13;3.45;;;;;;;;;;5068379;28;20029;-74
2021/04/07 10:15:08;;;;;;;11.05;3.45;;;;;;;;;;5061066;28;20029;-74
2021/04/07 10:17:40;;;;;;;8.65;2.90;;;;;;;;;;5071254;28;20024;-74
2021/04/07 10:20:07;;;;;;;7.68;3.08;;;;;;;;;;5063074;28;20035;-74
2021/04/07 10:22:33;;;;;;;17.02;6.68;;;;;;;;;;5063562;28;20029;-74
2021/04/07 10:27:38;;;;;;;10.50;3.63;;;;;;;;;;5063768;28;20037;-75
2021/04/07 10:30:05;;;;;;;15.73;3.88;;;;;;;;;;5064525;28;20116;-74
2021/04/07 10:32:30;;;;;;;7.22;2.90;;;;;;;;;;5063599;28;20025;-75
2021/04/07 10:37:18;;;;;;;8.98;3.05;;;;;;;;;;5057592;28;20362;-74
2021/04/07 10:39:44;;;;;;;5.75;2.28;;;;;;;;;;5059504;28;20028;-74
2021/04/07 10:42:17;;;;;;;9.10;2.78;;;;;;;;;;5059144;28;20079;-74
2021/04/07 10:44:43;;;;;;;8.40;2.85;;;;;;;;;;5043866;28;20103;-74
2021/04/07 10:47:16;;;;;;;10.40;2.50;;;;;;;;;;5058397;28;20119;-74
2021/04/07 10:49:52;;;;;;;21.23;7.07;;;;;;;;;;5053684;28;20021;-74
2021/04/07 10:52:28;;;;;;;11.23;3.67;;;;;;;;;;5059252;28;20080;-74
2021/04/07 10:54:57;;;;;;;8.02;2.53;;;;;;;;;;5060007;28;20056;-74
2021/04/07 10:57:30;;;;;;;5.13;2.42;;;;;;;;;;5057377;28;20473;-74
2021/04/07 10:59:55;;;;;;;8.88;2.65;;;;;;;;;;5055409;28;20028;-74
2021/04/07 11:02:21;;;;;;;11.82;4.65;;;;;;;;;;5055846;28;20017;-74
2021/04/07 11:04:47;;;;;;;11.15;4.03;;;;;;;;;;5049023;28;20100;-74
2021/04/07 11:07:13;;;;;;;8.20;3.03;;;;;;;;;;5055349;28;20028;-74
2021/04/07 11:09:48;;;;;;;8.73;3.00;;;;;;;;;;5055846;28;20032;-74
2021/04/07 11:12:16;;;;;;;10.15;2.28;;;;;;;;;;5062457;28;20086;-74
2021/04/07 11:14:49;;;;;;;12.40;3.75;;;;;;;;;;5051587;28;20366;-74
2021/04/07 11:17:15;;;;;;;9.23;2.90;;;;;;;;;;5062741;28;20024;-74
2021/04/07 11:21:58;;;;;;;8.52;3.33;;;;;;;;;;5068262;27;20362;-74
2021/04/07 11:24:24;;;;;;;17.38;3.63;;;;;;;;;;5069798;28;20043;-77
2021/04/07 11:26:52;;;;;;;6.57;2.75;;;;;;;;;;5069343;28;20029;-77
2021/04/07 11:29:17;;;;;;;9.02;3.42;;;;;;;;;;5069844;28;20028;-78
2021/04/07 11:31:44;;;;;;;13.60;2.92;;;;;;;;;;5046846;28;20029;-77
2021/04/07 11:34:12;;;;;;;10.20;3.67;;;;;;;;;;5048262;28;20029;-77
2021/04/07 11:36:50;;;;;;;12.38;5.03;;;;;;;;;;5039976;28;20125;-77
2021/04/07 11:39:22;;;;;;;11.55;6.20;;;;;;;;;;5045549;28;20089;-77
2021/04/07 11:44:25;;;;;;;8.60;5.18;;;;;;;;;;5045936;28;20045;-77
2021/04/07 11:46:52;;;;;;;17.98;8.07;;;;;;;;;;5051406;28;20017;-77
2021/04/07 11:49:18;;;;;;;13.50;5.63;;;;;;;;;;5052950;28;20091;-78
2021/04/07 11:51:44;;;;;;;17.73;7.47;;;;;;;;;;5050856;28;20017;-77
2021/04/07 11:54:11;;;;;;;14.73;6.93;;;;;;;;;;5047169;28;20036;-78
2021/04/07 11:56:37;;;;;;;16.05;8.57;;;;;;;;;;5049435;28;20118;-78
2021/04/07 11:59:03;;;;;;;17.55;7.97;;;;;;;;;;5049198;28;20037;-77
2021/04/07 12:01:28;;;;;;;21.00;7.88;;;;;;;;;;5049446;28;20031;-77
2021/04/07 12:03:54;;;;;;;17.15;8.73;;;;;;;;;;5047673;28;19923;-77
2021/04/07 12:06:20;;;;;;;13.38;8.02;;;;;;;;;;5049468;28;20021;-77
2021/04/07 12:08:46;;;;;;;8.38;3.17;;;;;;;;;;5051901;28;20017;-77
2021/04/07 12:11:13;;;;;;;5.90;3.10;;;;;;;;;;5050857;28;20028;-78
2021/04/07 12:13:38;;;;;;;9.20;3.53;;;;;;;;;;5049523;28;20021;-77
2021/04/07 12:16:04;;;;;;;8.40;3.35;;;;;;;;;;5049796;28;20023;-77
2021/04/07 12:18:30;;;;;;;7.88;3.20;;;;;;;;;;5047674;28;20954;-78
2021/04/07 12:20:56;;;;;;;8.55;3.88;;;;;;;;;;5049438;28;20021;-77
2021/04/07 12:23:21;;;;;;;6.65;3.35;;;;;;;;;;5048896;28;20449;-78
2021/04/07 12:25:47;;;;;;;13.05;6.75;;;;;;;;;;5048570;28;20092;-78
2021/04/07 12:28:13;;;;;;;7.32;2.95;;;;;;;;;;5048322;28;20013;-77
2021/04/07 12:30:49;;;;;;;8.00;3.13;;;;;;;;;;5049802;28;20025;-77
2021/04/07 12:33:16;;;;;;;9.18;4.10;;;;;;;;;;5034890;28;20022;-77
2021/04/07 12:36:01;;;;;;;7.55;3.78;;;;;;;;;;5036818;28;20469;-76
2021/04/07 12:38:30;;;;;;;5.95;2.95;;;;;;;;;;5036317;28;20531;-77
2021/04/07 12:40:57;;;;;;;7.50;3.17;;;;;;;;;;5037920;28;20026;-77
2021/04/07 12:43:23;;;;;;;7.70;3.38;;;;;;;;;;5036369;28;20013;-77
2021/04/07 12:45:49;;;;;;;9.55;3.13;;;;;;;;;;5038056;28;20032;-76
2021/04/07 12:48:14;;;;;;;7.15;3.35;;;;;;;;;;5038203;28;20081;-77
2021/04/07 12:50:41;;;;;;;8.18;3.65;;;;;;;;;;5036182;28;20119;-77
2021/04/07 12:53:07;;;;;;;8.60;3.30;;;;;;;;;;5038306;28;20056;-77
2021/04/07 12:55:33;;;;;;;7.13;3.08;;;;;;;;;;5031456;28;20032;-77
2021/04/07 13:00:17;;;;;;;9.48;3.65;;;;;;;;;;5051092;27;20366;-78
2021/04/07 13:05:00;;;;;;;9.13;4.82;;;;;;;;;;5108020;27;20854;-77
2021/04/07 13:07:26;;;;;;;6.82;3.33;;;;;;;;;;5095301;28;20029;-77
2021/04/07 13:09:53;;;;;;;6.40;3.30;;;;;;;;;;5080261;28;20024;-76
2021/04/07 13:12:18;;;;;;;10.35;3.58;;;;;;;;;;5086588;28;20028;-77
2021/04/07 13:14:44;;;;;;;7.15;3.63;;;;;;;;;;5085351;28;20508;-77
2021/04/07 13:17:11;;;;;;;5.03;2.65;;;;;;;;;;5079429;28;20021;-76
2021/04/07 13:19:38;;;;;;;7.00;3.15;;;;;;;;;;5090378;28;20402;-77
2021/04/07 13:22:03;;;;;;;6.55;2.85;;;;;;;;;;5093584;28;20021;-77
2021/04/07 13:24:29;;;;;;;8.95;3.67;;;;;;;;;;5084936;28;20120;-77
2021/04/07 13:26:55;;;;;;;7.28;2.75;;;;;;;;;;5080864;28;20029;-77
2021/04/07 13:29:21;;;;;;;4.85;2.53;;;;;;;;;;5083990;28;20036;-77
2021/04/07 13:31:47;;;;;;;7.57;3.88;;;;;;;;;;5078798;28;20107;-77
2021/04/07 13:34:21;;;;;;;8.50;3.53;;;;;;;;;;5075213;28;20027;-77
2021/04/07 13:37:22;;;;;;;6.65;4.00;;;;;;;;;;5087647;28;20027;-77
2021/04/07 13:40:05;;;;;;;;;;;;;;;;;;5071615;28;20039;-77
2021/04/07 13:42:45;;;;;;;8.02;3.50;;;;;;;;;;5073525;28;19916;-76
2021/04/07 13:45:11;;;;;;;6.75;3.20;;;;;;;;;;5096879;28;20024;-77
2021/04/07 13:47:40;;;;;;;7.38;4.38;;;;;;;;;;5091897;28;20048;-77
2021/04/07 13:50:06;;;;;;;8.77;5.00;;;;;;;;;;5073108;28;20054;-77
2021/04/07 13:52:32;;;;;;;12.93;7.32;;;;;;;;;;5079840;28;20016;-77
2021/04/07 13:54:57;;;;;;;6.68;4.03;;;;;;;;;;5085486;28;20553;-77
2021/04/07 13:57:28;;;;;;;7.95;4.53;;;;;;;;;;5075800;28;20021;-76
2021/04/07 13:59:55;;;;;;;8.48;3.28;;;;;;;;;;5087002;28;20015;-77
2021/04/07 14:02:22;;;;;;;9.15;3.17;;;;;;;;;;5096564;28;20020;-77
2021/04/07 14:04:48;;;;;;;6.15;3.38;;;;;;;;;;5083778;28;20024;-77
2021/04/07 14:07:15;;;;;;;12.00;6.03;;;;;;;;;;5079247;28;20103;-77
2021/04/07 14:09:42;;;;;;;15.68;6.10;;;;;;;;;;5092475;28;20027;-77
2021/04/07 14:14:26;;;;;;;10.15;5.50;;;;;;;;;;5119465;27;20418;-77
2021/04/07 14:16:51;;;;;;;16.48;7.00;;;;;;;;;;5086422;28;20024;-77
2021/04/07 14:19:17;;;;;;;12.40;7.65;;;;;;;;;;5087990;28;20020;-77
2021/04/07 14:21:43;;;;;;;11.82;5.60;;;;;;;;;;5082029;28;20021;-77
2021/04/07 14:24:09;;;;;;;11.30;5.10;;;;;;;;;;5082590;28;20115;-77
2021/04/07 14:26:35;;;;;;;10.57;5.25;;;;;;;;;;5082413;28;20063;-77
2021/04/07 14:29:00;;;;;;;10.27;6.57;;;;;;;;;;5084666;28;20484;-77
2021/04/07 14:31:26;;;;;;;18.88;8.05;;;;;;;;;;5084342;28;20021;-76
2021/04/07 14:33:52;;;;;;;9.20;5.32;;;;;;;;;;5080535;28;20024;-77
2021/04/07 14:36:17;;;;;;;16.27;7.40;;;;;;;;;;5082076;28;20029;-76
2021/04/07 14:38:43;;;;;;;16.27;6.82;;;;;;;;;;5084881;28;20108;-77
2021/04/07 14:41:09;;;;;;;13.85;6.10;;;;;;;;;;5087114;28;20519;-77
2021/04/07 14:43:34;;;;;;;13.02;7.00;;;;;;;;;;5085556;28;20389;-76
2021/04/07 14:46:05;;;;;;;12.20;5.57;;;;;;;;;;5072934;28;20021;-77
2021/04/07 14:48:30;;;;;;;15.15;6.05;;;;;;;;;;5078340;28;20040;-77
2021/04/07 14:53:20;;;;;;;7.88;4.22;;;;;;;;;;5098512;27;20360;-78
2021/04/07 14:55:46;;;;;;;10.25;3.50;;;;;;;;;;5098745;28;20123;-78
2021/04/07 14:58:12;;;;;;;14.95;4.53;;;;;;;;;;5089481;28;20116;-78
2021/04/07 15:00:39;;;;;;;14.23;6.68;;;;;;;;;;5107669;28;20472;-77
2021/04/07 15:03:04;;;;;;;17.80;6.60;;;;;;;;;;5104575;28;20066;-77
2021/04/07 15:05:30;;;;;;;13.55;5.72;;;;;;;;;;5102208;28;20357;-77
2021/04/07 15:07:56;;;;;;;17.95;5.95;;;;;;;;;;5102817;28;20023;-78
2021/04/07 15:10:22;;;;;;;8.57;5.20;;;;;;;;;;5103524;28;20034;-79
2021/04/07 15:12:48;;;;;;;9.48;5.05;;;;;;;;;;5105790;28;20051;-79
2021/04/07 15:15:14;;;;;;;6.82;3.25;;;;;;;;;;5104271;28;20020;-80
2021/04/07 15:17:40;;;;;;;5.32;3.35;;;;;;;;;;5098875;28;20115;-79
2021/04/07 15:20:06;;;;;;;5.88;3.13;;;;;;;;;;5092173;28;20032;-78
2021/04/07 15:22:35;;;;;;;9.70;3.83;;;;;;;;;;5104441;28;20024;-78
2021/04/07 15:25:01;;;;;;;9.93;4.15;;;;;;;;;;5095771;28;20021;-79
2021/04/07 15:27:32;;;;;;;16.05;8.65;;;;;;;;;;5102014;28;20031;-78
2021/04/07 15:29:57;;;;;;;38.10;22.60;;;;;;;;;;5094119;28;20480;-79
2021/04/07 15:32:23;;;;;;;18.63;9.60;;;;;;;;;;5104552;28;20035;-79
2021/04/07 15:34:49;;;;;;;11.52;5.75;;;;;;;;;;5101966;28;20377;-78
2021/04/07 15:37:14;;;;;;;8.80;3.80;;;;;;;;;;5106534;28;20038;-77
2021/04/07 15:39:40;;;;;;;8.73;5.15;;;;;;;;;;5105065;28;20048;-77
2021/04/07 15:42:06;;;;;;;11.07;5.28;;;;;;;;;;5101812;28;20468;-79
2021/04/07 15:44:32;;;;;;;20.05;10.38;;;;;;;;;;5108340;28;20070;-78
2021/04/07 15:46:58;;;;;;;12.32;6.60;;;;;;;;;;5111433;28;20526;-78
2021/04/07 15:49:24;;;;;;;9.05;4.35;;;;;;;;;;5108901;28;20023;-78
2021/04/07 15:51:50;;;;;;;8.95;4.68;;;;;;;;;;5104874;28;20465;-79
2021/04/07 15:54:16;;;;;;;9.30;4.20;;;;;;;;;;5106946;28;20047;-78
2021/04/07 15:56:41;;;;;;;8.63;3.72;;;;;;;;;;5110424;28;20025;-79
2021/04/07 15:59:07;;;;;;;7.28;3.40;;;;;;;;;;5102088;28;20472;-77
2021/04/07 16:01:33;;;;;;;6.80;3.28;;;;;;;;;;5104963;28;20019;-77
2021/04/07 16:03:58;;;;;;;7.28;2.78;;;;;;;;;;5096276;28;20032;-78
2021/04/07 16:06:24;;;;;;;6.28;3.10;;;;;;;;;;5094582;28;20028;-78
2021/04/07 16:08:50;;;;;;;5.60;2.50;;;;;;;;;;5089302;28;20051;-78
2021/04/07 16:11:16;;;;;;;4.20;2.03;;;;;;;;;;5089363;28;20035;-78
2021/04/07 16:13:41;;;;;;;7.53;3.20;;;;;;;;;;5092724;28;20032;-78
2021/04/07 16:16:07;;;;;;;11.75;3.92;;;;;;;;;;5093185;28;20055;-79
2021/04/07 16:18:33;;;;;;;7.45;3.10;;;;;;;;;;5092365;28;20028;-78
2021/04/07 16:20:59;;;;;;;7.00;3.05;;;;;;;;;;5093234;28;20059;-78
2021/04/07 16:23:24;;;;;;;8.00;3.42;;;;;;;;;;5093407;28;20036;-78
2021/04/07 16:25:50;;;;;;;10.80;5.50;;;;;;;;;;5081623;28;20034;-77
2021/04/07 16:28:18;;;;;;;6.35;3.95;;;;;;;;;;5069402;28;20027;-77
2021/04/07 16:30:46;;;;;;;9.75;4.53;;;;;;;;;;5061881;28;20113;-77
2021/04/07 16:33:15;;;;;;;8.02;3.85;;;;;;;;;;5079430;28;20027;-77
2021/04/07 16:35:41;;;;;;;10.52;4.47;;;;;;;;;;5083258;28;20077;-77
2021/04/07 16:38:07;;;;;;;7.55;3.92;;;;;;;;;;5083329;28;20028;-77
2021/04/07 16:40:33;;;;;;;7.03;3.35;;;;;;;;;;5088486;28;20028;-77
2021/04/07 16:42:59;;;;;;;8.50;3.35;;;;;;;;;;5085461;28;20034;-77
2021/04/07 16:45:25;;;;;;;7.18;3.55;;;;;;;;;;5080799;28;20571;-77
2021/04/07 16:47:51;;;;;;;6.80;3.10;;;;;;;;;;5081273;28;20027;-77
2021/04/07 16:50:17;;;;;;;8.80;3.30;;;;;;;;;;5082749;28;20560;-77
2021/04/07 16:52:43;;;;;;;7.70;3.17;;;;;;;;;;5087128;28;20044;-77
2021/04/07 16:55:09;;;;;;;4.95;2.42;;;;;;;;;;5086494;28;20034;-77
2021/04/07 16:57:35;;;;;;;6.30;2.50;;;;;;;;;;5084842;28;20031;-77
2021/04/07 17:00:01;;;;;;;6.05;2.88;;;;;;;;;;5082767;28;20021;-77
2021/04/07 17:02:27;;;;;;;6.25;2.55;;;;;;;;;;5082883;28;20480;-77
2021/04/07 17:04:53;;;;;;;4.70;2.00;;;;;;;;;;5078744;28;20030;-77
2021/04/07 17:07:18;;;;;;;5.03;2.00;;;;;;;;;;5084741;28;20020;-77
2021/04/07 17:09:44;;;;;;;6.35;2.85;;;;;;;;;;5080353;28;20033;-77
2021/04/07 17:12:10;;;;;;;6.07;2.08;;;;;;;;;;5082053;28;20020;-77
2021/04/07 17:14:36;;;;;;;4.00;1.70;;;;;;;;;;5079508;28;20031;-77
2021/04/07 17:17:01;;;;;;;6.78;2.15;;;;;;;;;;5074965;28;20025;-77
2021/04/07 17:19:28;;;;;;;5.18;2.60;;;;;;;;;;5086581;28;20510;-77
2021/04/07 17:21:54;;;;;;;4.47;2.15;;;;;;;;;;5079113;28;20028;-77
2021/04/07 17:24:20;;;;;;;5.82;2.70;;;;;;;;;;5080821;28;20097;-77
2021/04/07 17:26:46;;;;;;;7.93;2.15;;;;;;;;;;5080939;28;20036;-77
2021/04/07 17:29:12;;;;;;;10.30;2.30;;;;;;;;;;5081822;28;20048;-77
2021/04/07 17:31:37;;;;;;;7.25;2.28;;;;;;;;;;5082079;28;20032;-77
2021/04/07 17:34:03;;;;;;;4.13;2.17;;;;;;;;;;5079030;28;20534;-77
2021/04/07 17:36:29;;;;;;;4.18;1.98;;;;;;;;;;5081223;28;20025;-77
2021/04/07 17:38:55;;;;;;;6.53;3.85;;;;;;;;;;5080826;28;20035;-77
2021/04/07 17:41:21;;;;;;;5.55;2.63;;;;;;;;;;5081970;28;20048;-77
2021/04/07 17:43:50;;;;;;;5.07;2.20;;;;;;;;;;5080737;28;20053;-77
2021/04/07 17:46:16;;;;;;;4.47;1.77;;;;;;;;;;5082969;28;20066;-77
2021/04/07 17:49:03;;;;;;;4.15;2.50;;;;;;;;;;5082573;28;20051;-78
2021/04/07 17:51:29;;;;;;;5.88;2.75;;;;;;;;;;5069438;28;20024;-78
2021/04/07 17:54:04;;;;;;;5.40;2.03;;;;;;;;;;5083097;28;20063;-78
2021/04/07 17:57:07;;;;;;;4.55;2.13;;;;;;;;;;5086722;28;20032;-78
2021/04/07 17:59:57;;;;;;;6.15;1.65;;;;;;;;;;5080335;28;20020;-78
2021/04/07 18:02:49;;;;;;;5.65;2.08;;;;;;;;;;5085427;28;20032;-78
2021/04/07 18:05:29;;;;;;;5.88;1.60;;;;;;;;;;5086844;28;20058;-78
2021/04/07 18:08:00;;;;;;;4.30;1.42;;;;;;;;;;5079899;28;20496;-78
2021/04/07 18:10:47;;;;;;;4.15;1.80;;;;;;;;;;5096651;28;20040;-78
2021/04/07 18:13:37;;;;;;;6.88;2.42;;;;;;;;;;5083644;28;20033;-78
2021/04/07 18:16:25;;;;;;;4.10;1.70;;;;;;;;;;5082358;28;20032;-77
2021/04/07 18:19:17;;;;;;;5.22;1.60;;;;;;;;;;5082991;28;20173;-78
2021/04/07 18:21:48;;;;;;;4.93;1.63;;;;;;;;;;5078859;28;20029;-78
2021/04/07 18:24:17;;;;;;;4.03;1.50;;;;;;;;;;5081845;28;20032;-78
2021/04/07 18:26:52;;;;;;;4.63;1.98;;;;;;;;;;5080847;28;20060;-78
2021/04/07 18:29:33;;;;;;;4.22;1.67;;;;;;;;;;5086047;28;20028;-77
2021/04/07 18:32:00;;;;;;;11.50;2.58;;;;;;;;;;5096397;28;20036;-77
2021/04/07 18:34:47;;;;;;;4.82;1.73;;;;;;;;;;5082683;28;20175;-78
2021/04/07 18:37:14;;;;;;;5.25;1.95;;;;;;;;;;5091340;28;20587;-78
2021/04/07 18:39:51;;;;;;;5.90;1.60;;;;;;;;;;5079064;28;20033;-78
2021/04/07 18:42:18;;;;;;;4.43;1.50;;;;;;;;;;5074473;28;20066;-78
2021/04/07 18:44:51;;;;;;;4.72;1.70;;;;;;;;;;5082517;28;20322;-78
2021/04/07 18:47:20;;;;;;;4.93;1.73;;;;;;;;;;5078943;28;20032;-78
2021/04/07 18:49:48;;;;;;;7.07;1.70;;;;;;;;;;5081933;28;20055;-77
2021/04/07 18:52:17;;;;;;;4.22;2.10;;;;;;;;;;5076286;28;20067;-78
2021/04/07 18:54:55;;;;;;;3.83;1.73;;;;;;;;;;5081280;28;20059;-78
2021/04/07 18:57:24;;;;;;;4.95;2.00;;;;;;;;;;5080513;28;20036;-77
2021/04/07 19:00:11;;;;;;;4.05;1.77;;;;;;;;;;5079230;28;20097;-78
2021/04/07 19:02:38;;;;;;;4.45;1.80;;;;;;;;;;5081553;28;20048;-78
2021/04/07 19:05:06;;;;;;;4.15;1.50;;;;;;;;;;5060126;28;20094;-78
2021/04/07 19:07:39;;;;;;;3.60;1.50;;;;;;;;;;5080237;28;20037;-77
2021/04/07 19:10:14;;;;;;;7.53;1.98;;;;;;;;;;5082043;28;20068;-78
2021/04/07 19:12:39;;;;;;;6.07;1.67;;;;;;;;;;5082013;28;20028;-78
2021/04/07 19:15:08;;;;;;;7.80;2.80;;;;;;;;;;5083711;28;20429;-79
2021/04/07 19:18:13;;;;;;;5.18;2.38;;;;;;;;;;5082680;28;20054;-78
2021/04/07 19:30:07;;;;;;;7.13;2.80;;;;;;;;;;5084705;28;20555;-78
2021/04/07 19:38:04;;;;;;;5.65;2.00;;;;;;;;;;5102059;27;20346;-78
2021/04/07 19:40:30;;;;;;;3.67;1.92;;;;;;;;;;5086036;28;20056;-78
2021/04/07 19:42:56;;;;;;;5.25;1.48;;;;;;;;;;5087840;28;20076;-78
2021/04/07 19:45:22;;;;;;;5.63;1.73;;;;;;;;;;5083710;28;20029;-78
2021/04/07 19:47:51;;;;;;;2.92;1.60;;;;;;;;;;5086830;28;20062;-78
2021/04/07 19:53:19;;;;;;;4.85;1.98;;;;;;;;;;5037718;28;20102;-78
2021/04/07 19:58:08;;;;;;;5.82;2.10;;;;;;;;;;5112921;27;20391;-78
2021/04/07 20:00:49;;;;;;;4.40;1.80;;;;;;;;;;5089675;28;20032;-78
2021/04/07 20:03:18;;;;;;;3.27;1.47;;;;;;;;;;5091454;28;20032;-77
2021/04/07 20:05:44;;;;;;;4.60;1.77;;;;;;;;;;5109045;28;20054;-78
2021/04/07 20:08:14;;;;;;;5.43;1.60;;;;;;;;;;5094443;28;21165;-78
2021/04/07 20:10:42;;;;;;;5.40;1.80;;;;;;;;;;5109017;28;20019;-78
2021/04/07 20:13:12;;;;;;;4.43;1.35;;;;;;;;;;5104038;28;20038;-78
2021/04/07 20:15:38;;;;;;;7.13;1.65;;;;;;;;;;5097334;28;20043;-78
2021/04/07 20:18:25;;;;;;;3.53;1.60;;;;;;;;;;5101162;28;20036;-78
2021/04/07 20:21:32;;;;;;;8.38;1.90;;;;;;;;;;5087214;28;20096;-78
2021/04/07 20:24:33;;;;;;;3.83;1.30;;;;;;;;;;5109340;28;20031;-78